sensor_id;sensor_type;location;lat;lon;timestamp;pressure;altitude;pressure_sealevel;temperature;humidity
2268;BME280;11052;43.338;25.502;2023-02-12T00:02:14;101784.94;;;-0.97;100.00
2268;BME280;11052;43.338;25.502;2023-02-12T00:04:43;101783.19;;;-0.98;100.00
2268;BME280;11052;43.338;25.502;2023-02-12T00:07:10;101777.22;;;-0.99;100.00
2268;BME280;11052;43.338;25.502;2023-02-12T00:09:37;101783.19;;;-0.98;100.00
2268;BME280;11052;43.338;25.502;2023-02-12T00:12:04;101772.25;;;-0.96;100.00
2268;BME280;11052;43.338;25.502;2023-02-12T00:14:31;101779.34;;;-0.89;100.00
2268;BME280;11052;43.338;25.502;2023-02-12T00:16:59;101782.03;;;-0.84;100.00
2268;BME280;11052;43.338;25.502;2023-02-12T00:19:26;101782.16;;;-0.81;100.00
2268;BME280;11052;43.338;25.502;2023-02-12T00:21:55;101771.22;;;-0.79;100.00
2268;BME280;11052;43.338;25.502;2023-02-12T00:24:22;101778.94;;;-0.77;100.00
2268;BME280;11052;43.338;25.502;2023-02-12T00:26:49;101780.91;;;-0.70;100.00
2268;BME280;11052;43.338;25.502;2023-02-12T00:29:16;101774.94;;;-0.71;100.00
2268;BME280;11052;43.338;25.502;2023-02-12T00:31:43;101771.03;;;-0.62;100.00
2268;BME280;11052;43.338;25.502;2023-02-12T00:34:10;101765.00;;;-0.64;100.00
2268;BME280;11052;43.338;25.502;2023-02-12T00:36:38;101764.25;;;-0.62;100.00
2268;BME280;11052;43.338;25.502;2023-02-12T00:39:06;101759.41;;;-0.56;100.00
2268;BME280;11052;43.338;25.502;2023-02-12T00:41:33;101756.50;;;-0.65;100.00
2268;BME280;11052;43.338;25.502;2023-02-12T00:44:00;101757.59;;;-0.58;100.00
2268;BME280;11052;43.338;25.502;2023-02-12T00:46:27;101757.53;;;-0.60;100.00
2268;BME280;11052;43.338;25.502;2023-02-12T00:48:54;101750.03;;;-0.57;100.00
2268;BME280;11052;43.338;25.502;2023-02-12T00:51:22;101758.69;;;-0.52;100.00
2268;BME280;11052;43.338;25.502;2023-02-12T00:53:49;101759.88;;;-0.44;100.00
2268;BME280;11052;43.338;25.502;2023-02-12T00:56:17;101752.75;;;-0.52;100.00
2268;BME280;11052;43.338;25.502;2023-02-12T00:58:44;101754.94;;;-0.39;100.00
2268;BME280;11052;43.338;25.502;2023-02-12T01:01:11;101759.13;;;-0.41;100.00
2268;BME280;11052;43.338;25.502;2023-02-12T01:03:39;101758.31;;;-0.40;100.00
2268;BME280;11052;43.338;25.502;2023-02-12T01:06:06;101755.63;;;-0.43;100.00
2268;BME280;11052;43.338;25.502;2023-02-12T01:08:33;101747.31;;;-0.39;100.00
2268;BME280;11052;43.338;25.502;2023-02-12T01:11:03;101748.47;;;-0.31;100.00
2268;BME280;11052;43.338;25.502;2023-02-12T01:13:32;101749.03;;;-0.38;100.00
2268;BME280;11052;43.338;25.502;2023-02-12T01:16:01;101742.78;;;-0.46;100.00
2268;BME280;11052;43.338;25.502;2023-02-12T01:18:29;101741.06;;;-0.47;100.00
2268;BME280;11052;43.338;25.502;2023-02-12T01:20:56;101748.06;;;-0.42;100.00
2268;BME280;11052;43.338;25.502;2023-02-12T01:23:23;101748.16;;;-0.39;100.00
2268;BME280;11052;43.338;25.502;2023-02-12T01:25:51;101739.59;;;-0.41;100.00
2268;BME280;11052;43.338;25.502;2023-02-12T01:28:18;101731.78;;;-0.45;100.00
2268;BME280;11052;43.338;25.502;2023-02-12T01:30:46;101735.16;;;-0.46;100.00
2268;BME280;11052;43.338;25.502;2023-02-12T01:33:13;101730.41;;;-0.37;100.00
2268;BME280;11052;43.338;25.502;2023-02-12T01:35:40;101719.34;;;-0.38;100.00
2268;BME280;11052;43.338;25.502;2023-02-12T01:38:08;101718.66;;;-0.34;100.00
2268;BME280;11052;43.338;25.502;2023-02-12T01:40:35;101712.69;;;-0.34;100.00
2268;BME280;11052;43.338;25.502;2023-02-12T01:43:05;101709.22;;;-0.36;100.00
2268;BME280;11052;43.338;25.502;2023-02-12T01:45:52;101706.84;;;-0.31;100.00
2268;BME280;11052;43.338;25.502;2023-02-12T01:48:22;101708.75;;;-0.26;100.00
2268;BME280;11052;43.338;25.502;2023-02-12T01:50:52;101721.47;;;-0.26;100.00
2268;BME280;11052;43.338;25.502;2023-02-12T01:53:21;101718.75;;;-0.30;100.00
2268;BME280;11052;43.338;25.502;2023-02-12T01:55:53;101708.03;;;-0.22;100.00
2268;BME280;11052;43.338;25.502;2023-02-12T01:58:23;101701.97;;;-0.25;100.00
2268;BME280;11052;43.338;25.502;2023-02-12T02:00:52;101705.31;;;-0.26;100.00
2268;BME280;11052;43.338;25.502;2023-02-12T02:03:19;101694.44;;;-0.22;100.00
2268;BME280;11052;43.338;25.502;2023-02-12T02:05:52;101701.16;;;-0.24;100.00
2268;BME280;11052;43.338;25.502;2023-02-12T02:08:21;101703.19;;;-0.38;100.00
2268;BME280;11052;43.338;25.502;2023-02-12T02:10:49;101703.41;;;-0.32;100.00
2268;BME280;11052;43.338;25.502;2023-02-12T02:13:16;101697.34;;;-0.36;100.00
2268;BME280;11052;43.338;25.502;2023-02-12T02:16:07;101687.03;;;-0.39;100.00
2268;BME280;11052;43.338;25.502;2023-02-12T02:18:41;101681.31;;;-0.33;100.00
2268;BME280;11052;43.338;25.502;2023-02-12T02:21:23;101692.59;;;-0.26;100.00
2268;BME280;11052;43.338;25.502;2023-02-12T02:24:17;101695.03;;;-0.29;100.00
2268;BME280;11052;43.338;25.502;2023-02-12T02:27:13;101701.19;;;-0.23;100.00
2268;BME280;11052;43.338;25.502;2023-02-12T02:32:36;101709.00;;;-0.18;100.00
2268;BME280;11052;43.338;25.502;2023-02-12T02:35:09;101698.88;;;-0.17;100.00
2268;BME280;11052;43.338;25.502;2023-02-12T02:37:40;101692.22;;;-0.13;100.00
2268;BME280;11052;43.338;25.502;2023-02-12T02:40:14;101693.88;;;-0.14;100.00
2268;BME280;11052;43.338;25.502;2023-02-12T02:42:49;101698.13;;;-0.14;100.00
2268;BME280;11052;43.338;25.502;2023-02-12T02:45:20;101687.13;;;-0.13;100.00
2268;BME280;11052;43.338;25.502;2023-02-12T02:47:57;101691.50;;;-0.09;100.00
2268;BME280;11052;43.338;25.502;2023-02-12T02:50:27;101693.13;;;-0.11;100.00
2268;BME280;11052;43.338;25.502;2023-02-12T02:53:00;101688.44;;;0.01;100.00
2268;BME280;11052;43.338;25.502;2023-02-12T02:55:32;101701.66;;;0.15;100.00
2268;BME280;11052;43.338;25.502;2023-02-12T02:58:06;101691.94;;;0.28;100.00
2268;BME280;11052;43.338;25.502;2023-02-12T03:00:38;101681.03;;;0.32;100.00
2268;BME280;11052;43.338;25.502;2023-02-12T03:03:13;101686.13;;;0.32;100.00
2268;BME280;11052;43.338;25.502;2023-02-12T03:05:45;101690.78;;;0.44;100.00
2268;BME280;11052;43.338;25.502;2023-02-12T03:08:16;101698.44;;;0.44;100.00
2268;BME280;11052;43.338;25.502;2023-02-12T03:10:46;101698.59;;;0.49;100.00
2268;BME280;11052;43.338;25.502;2023-02-12T03:13:18;101699.28;;;0.45;100.00
2268;BME280;11052;43.338;25.502;2023-02-12T03:15:50;101713.78;;;0.46;100.00
2268;BME280;11052;43.338;25.502;2023-02-12T03:18:23;101710.63;;;0.53;100.00
2268;BME280;11052;43.338;25.502;2023-02-12T03:20:54;101704.97;;;0.61;100.00
2268;BME280;11052;43.338;25.502;2023-02-12T03:23:26;101702.22;;;0.55;100.00
2268;BME280;11052;43.338;25.502;2023-02-12T03:25:57;101693.28;;;0.68;100.00
2268;BME280;11052;43.338;25.502;2023-02-12T03:28:28;101695.91;;;0.71;100.00
2268;BME280;11052;43.338;25.502;2023-02-12T03:31:04;101691.78;;;0.75;100.00
2268;BME280;11052;43.338;25.502;2023-02-12T03:33:43;101688.31;;;0.73;100.00
2268;BME280;11052;43.338;25.502;2023-02-12T03:36:23;101692.34;;;0.66;100.00
2268;BME280;11052;43.338;25.502;2023-02-12T03:38:53;101693.22;;;0.67;100.00
2268;BME280;11052;43.338;25.502;2023-02-12T03:41:24;101695.81;;;0.68;100.00
2268;BME280;11052;43.338;25.502;2023-02-12T03:43:57;101694.91;;;0.66;100.00
2268;BME280;11052;43.338;25.502;2023-02-12T03:46:36;101699.34;;;0.72;100.00
2268;BME280;11052;43.338;25.502;2023-02-12T03:49:14;101699.25;;;0.69;100.00
2268;BME280;11052;43.338;25.502;2023-02-12T03:51:44;101703.81;;;0.79;100.00
2268;BME280;11052;43.338;25.502;2023-02-12T03:54:14;101697.56;;;0.69;100.00
2268;BME280;11052;43.338;25.502;2023-02-12T03:56:44;101706.03;;;0.68;100.00
2268;BME280;11052;43.338;25.502;2023-02-12T03:59:16;101725.63;;;0.69;100.00
2268;BME280;11052;43.338;25.502;2023-02-12T04:01:44;101723.06;;;0.69;100.00
2268;BME280;11052;43.338;25.502;2023-02-12T04:04:13;101722.97;;;0.66;100.00
2268;BME280;11052;43.338;25.502;2023-02-12T04:06:40;101723.06;;;0.69;100.00
2268;BME280;11052;43.338;25.502;2023-02-12T04:09:09;101727.25;;;0.67;100.00
2268;BME280;11052;43.338;25.502;2023-02-12T04:11:46;101728.84;;;0.63;100.00
2268;BME280;11052;43.338;25.502;2023-02-12T04:14:33;101720.41;;;0.66;100.00
2268;BME280;11052;43.338;25.502;2023-02-12T04:17:08;101723.84;;;0.67;100.00
2268;BME280;11052;43.338;25.502;2023-02-12T04:19:45;101723.75;;;0.63;100.00
2268;BME280;11052;43.338;25.502;2023-02-12T04:22:25;101723.75;;;0.63;100.00
2268;BME280;11052;43.338;25.502;2023-02-12T04:25:00;101727.22;;;0.65;100.00
2268;BME280;11052;43.338;25.502;2023-02-12T04:27:39;101725.78;;;0.74;100.00
2268;BME280;11052;43.338;25.502;2023-02-12T04:30:13;101725.81;;;0.75;100.00
2268;BME280;11052;43.338;25.502;2023-02-12T04:32:47;101725.72;;;0.72;100.00
2268;BME280;11052;43.338;25.502;2023-02-12T04:35:22;101737.06;;;0.80;100.00
2268;BME280;11052;43.338;25.502;2023-02-12T04:37:55;101738.94;;;0.86;100.00
2268;BME280;11052;43.338;25.502;2023-02-12T04:40:25;101745.19;;;0.95;100.00
2268;BME280;11052;43.338;25.502;2023-02-12T04:42:52;101748.22;;;0.84;100.00
2268;BME280;11052;43.338;25.502;2023-02-12T04:45:23;101747.41;;;0.85;100.00
2268;BME280;11052;43.338;25.502;2023-02-12T04:47:51;101746.03;;;0.96;100.00
2268;BME280;11052;43.338;25.502;2023-02-12T04:50:20;101758.56;;;0.88;100.00
2268;BME280;11052;43.338;25.502;2023-02-12T04:52:47;101766.38;;;0.93;100.00
2268;BME280;11052;43.338;25.502;2023-02-12T04:55:14;101767.22;;;0.93;100.00
2268;BME280;11052;43.338;25.502;2023-02-12T04:57:41;101777.28;;;0.89;100.00
2268;BME280;11052;43.338;25.502;2023-02-12T05:00:12;101779.91;;;0.90;100.00
2268;BME280;11052;43.338;25.502;2023-02-12T05:02:39;101779.94;;;0.92;100.00
2268;BME280;11052;43.338;25.502;2023-02-12T05:05:07;101783.28;;;0.89;100.00
2268;BME280;11052;43.338;25.502;2023-02-12T05:07:35;101779.78;;;0.86;100.00
2268;BME280;11052;43.338;25.502;2023-02-12T05:10:03;101781.34;;;0.82;100.00
2268;BME280;11052;43.338;25.502;2023-02-12T05:12:30;101778.81;;;0.82;100.00
2268;BME280;11052;43.338;25.502;2023-02-12T05:14:57;101789.06;;;0.84;100.00
2268;BME280;11052;43.338;25.502;2023-02-12T05:17:24;101783.03;;;0.82;100.00
2268;BME280;11052;43.338;25.502;2023-02-12T05:19:51;101784.69;;;0.80;100.00
2268;BME280;11052;43.338;25.502;2023-02-12T05:22:18;101780.38;;;0.79;100.00
2268;BME280;11052;43.338;25.502;2023-02-12T05:24:47;101792.22;;;0.77;100.00
2268;BME280;11052;43.338;25.502;2023-02-12T05:27:14;101793.19;;;0.80;100.00
2268;BME280;11052;43.338;25.502;2023-02-12T05:29:41;101797.22;;;0.74;100.00
2268;BME280;11052;43.338;25.502;2023-02-12T05:32:08;101804.19;;;0.78;100.00
2268;BME280;11052;43.338;25.502;2023-02-12T05:34:36;101808.50;;;0.80;100.00
2268;BME280;11052;43.338;25.502;2023-02-12T05:37:03;101822.16;;;0.81;100.00
2268;BME280;11052;43.338;25.502;2023-02-12T05:39:30;101832.41;;;0.82;100.00
2268;BME280;11052;43.338;25.502;2023-02-12T05:41:59;101830.78;;;0.84;100.00
2268;BME280;11052;43.338;25.502;2023-02-12T05:44:26;101835.00;;;0.84;100.00
2268;BME280;11052;43.338;25.502;2023-02-12T05:46:53;101842.72;;;0.85;100.00
2268;BME280;11052;43.338;25.502;2023-02-12T05:49:20;101845.28;;;0.87;100.00
2268;BME280;11052;43.338;25.502;2023-02-12T05:51:47;101841.91;;;0.88;100.00
2268;BME280;11052;43.338;25.502;2023-02-12T05:54:14;101849.50;;;0.85;100.00
2268;BME280;11052;43.338;25.502;2023-02-12T05:56:43;101851.25;;;0.87;100.00
2268;BME280;11052;43.338;25.502;2023-02-12T05:59:16;101842.72;;;0.85;100.00
2268;BME280;11052;43.338;25.502;2023-02-12T06:01:44;101842.84;;;0.90;100.00
2268;BME280;11052;43.338;25.502;2023-02-12T06:04:14;101836.25;;;0.96;100.00
2268;BME280;11052;43.338;25.502;2023-02-12T06:06:42;101846.41;;;0.95;100.00
2268;BME280;11052;43.338;25.502;2023-02-12T06:09:11;101838.19;;;1.04;100.00
2268;BME280;11052;43.338;25.502;2023-02-12T06:11:38;101844.34;;;1.09;100.00
2268;BME280;11052;43.338;25.502;2023-02-12T06:14:07;101855.47;;;1.11;100.00
2268;BME280;11052;43.338;25.502;2023-02-12T06:16:36;101859.25;;;1.22;100.00
2268;BME280;11052;43.338;25.502;2023-02-12T06:19:04;101853.06;;;1.15;100.00
2268;BME280;11052;43.338;25.502;2023-02-12T06:21:32;101878.50;;;1.12;100.00
2268;BME280;11052;43.338;25.502;2023-02-12T06:23:59;101869.06;;;1.10;100.00
2268;BME280;11052;43.338;25.502;2023-02-12T06:26:26;101857.09;;;1.09;100.00
2268;BME280;11052;43.338;25.502;2023-02-12T06:28:53;101859.91;;;1.16;100.00
2268;BME280;11052;43.338;25.502;2023-02-12T06:31:22;101868.28;;;1.12;100.00
2268;BME280;11052;43.338;25.502;2023-02-12T06:33:52;101878.88;;;1.23;100.00
2268;BME280;11052;43.338;25.502;2023-02-12T06:36:20;101883.25;;;1.27;100.00
2268;BME280;11052;43.338;25.502;2023-02-12T06:38:47;101889.38;;;1.32;100.00
2268;BME280;11052;43.338;25.502;2023-02-12T06:41:15;101887.69;;;1.33;100.00
2268;BME280;11052;43.338;25.502;2023-02-12T06:43:42;101886.50;;;1.48;100.00
2268;BME280;11052;43.338;25.502;2023-02-12T06:46:10;101887.03;;;1.38;100.00
2268;BME280;11052;43.338;25.502;2023-02-12T06:48:37;101897.41;;;1.43;100.00
2268;BME280;11052;43.338;25.502;2023-02-12T06:51:08;101885.59;;;1.46;100.00
2268;BME280;11052;43.338;25.502;2023-02-12T06:53:36;101899.38;;;1.51;100.00
2268;BME280;11052;43.338;25.502;2023-02-12T06:56:04;101903.72;;;1.54;100.00
2268;BME280;11052;43.338;25.502;2023-02-12T06:58:32;101906.59;;;1.63;100.00
2268;BME280;11052;43.338;25.502;2023-02-12T07:01:07;101915.13;;;1.63;100.00
2268;BME280;11052;43.338;25.502;2023-02-12T07:03:38;101911.91;;;1.69;100.00
2268;BME280;11052;43.338;25.502;2023-02-12T07:06:07;101919.41;;;1.64;100.00
2268;BME280;11052;43.338;25.502;2023-02-12T07:08:35;101918.69;;;1.69;100.00
2268;BME280;11052;43.338;25.502;2023-02-12T07:11:03;101918.66;;;1.67;100.00
2268;BME280;11052;43.338;25.502;2023-02-12T07:13:30;101919.69;;;1.74;100.00
2268;BME280;11052;43.338;25.502;2023-02-12T07:16:02;101929.28;;;1.81;100.00
2268;BME280;11052;43.338;25.502;2023-02-12T07:18:30;101919.19;;;1.85;100.00
2268;BME280;11052;43.338;25.502;2023-02-12T07:20:57;101915.06;;;1.89;100.00
2268;BME280;11052;43.338;25.502;2023-02-12T07:23:26;101920.50;;;2.00;100.00
2268;BME280;11052;43.338;25.502;2023-02-12T07:25:54;101913.78;;;2.03;100.00
2268;BME280;11052;43.338;25.502;2023-02-12T07:28:21;101920.53;;;2.01;100.00
2268;BME280;11052;43.338;25.502;2023-02-12T07:30:49;101922.38;;;2.05;100.00
2268;BME280;11052;43.338;25.502;2023-02-12T07:33:16;101922.50;;;2.10;100.00
2268;BME280;11052;43.338;25.502;2023-02-12T07:35:43;101920.97;;;2.15;100.00
2268;BME280;11052;43.338;25.502;2023-02-12T07:38:11;101925.44;;;2.22;100.00
2268;BME280;11052;43.338;25.502;2023-02-12T07:40:39;101926.38;;;2.24;100.00
2268;BME280;11052;43.338;25.502;2023-02-12T07:43:07;101926.53;;;2.30;100.00
2268;BME280;11052;43.338;25.502;2023-02-12T07:45:34;101927.81;;;2.44;100.00
2268;BME280;11052;43.338;25.502;2023-02-12T07:48:01;101922.94;;;2.52;100.00
2268;BME280;11052;43.338;25.502;2023-02-12T07:50:28;101922.84;;;2.49;100.00
2268;BME280;11052;43.338;25.502;2023-02-12T07:52:55;101925.66;;;2.58;100.00
2268;BME280;11052;43.338;25.502;2023-02-12T07:55:22;101923.59;;;2.76;100.00
2268;BME280;11052;43.338;25.502;2023-02-12T07:57:51;101935.91;;;2.89;100.00
2268;BME280;11052;43.338;25.502;2023-02-12T08:00:19;101935.34;;;3.00;100.00
2268;BME280;11052;43.338;25.502;2023-02-12T08:02:50;101931.75;;;2.93;100.00
2268;BME280;11052;43.338;25.502;2023-02-12T08:05:18;101938.59;;;2.94;100.00
2268;BME280;11052;43.338;25.502;2023-02-12T08:07:45;101941.31;;;3.00;100.00
2268;BME280;11052;43.338;25.502;2023-02-12T08:10:13;101949.22;;;3.08;100.00
2268;BME280;11052;43.338;25.502;2023-02-12T08:12:40;101946.41;;;2.99;100.00
2268;BME280;11052;43.338;25.502;2023-02-12T08:15:09;101951.69;;;3.05;100.00
2268;BME280;11052;43.338;25.502;2023-02-12T08:17:36;101949.06;;;3.02;100.00
2268;BME280;11052;43.338;25.502;2023-02-12T08:20:04;101952.34;;;2.97;100.00
2268;BME280;11052;43.338;25.502;2023-02-12T08:22:31;101954.97;;;2.99;100.00
2268;BME280;11052;43.338;25.502;2023-02-12T08:24:58;101967.63;;;2.94;100.00
2268;BME280;11052;43.338;25.502;2023-02-12T08:27:25;101962.91;;;3.08;100.00
2268;BME280;11052;43.338;25.502;2023-02-12T08:29:52;101973.06;;;3.05;100.00
2268;BME280;11052;43.338;25.502;2023-02-12T08:32:23;101966.19;;;3.04;100.00
2268;BME280;11052;43.338;25.502;2023-02-12T08:34:50;101970.28;;;2.97;100.00
2268;BME280;11052;43.338;25.502;2023-02-12T08:37:17;101965.91;;;2.93;100.00
2268;BME280;11052;43.338;25.502;2023-02-12T08:39:44;101971.41;;;3.07;100.00
2268;BME280;11052;43.338;25.502;2023-02-12T08:42:12;101972.66;;;3.21;100.00
2268;BME280;11052;43.338;25.502;2023-02-12T08:44:41;101975.22;;;3.21;100.00
2268;BME280;11052;43.338;25.502;2023-02-12T08:47:08;101976.28;;;3.29;100.00
2268;BME280;11052;43.338;25.502;2023-02-12T08:49:37;101975.03;;;3.48;100.00
2268;BME280;11052;43.338;25.502;2023-02-12T08:52:04;101975.00;;;3.45;100.00
2268;BME280;11052;43.338;25.502;2023-02-12T08:54:31;101978.75;;;3.59;100.00
2268;BME280;11052;43.338;25.502;2023-02-12T08:56:59;101973.22;;;3.77;100.00
2268;BME280;11052;43.338;25.502;2023-02-12T08:59:27;101990.03;;;4.01;100.00
2268;BME280;11052;43.338;25.502;2023-02-12T09:01:54;101993.03;;;4.19;100.00
2268;BME280;11052;43.338;25.502;2023-02-12T09:04:23;101994.66;;;4.15;100.00
2268;BME280;11052;43.338;25.502;2023-02-12T09:06:52;102004.09;;;4.16;100.00
2268;BME280;11052;43.338;25.502;2023-02-12T09:09:19;102006.88;;;4.25;100.00
2268;BME280;11052;43.338;25.502;2023-02-12T09:11:47;102018.84;;;4.25;100.00
2268;BME280;11052;43.338;25.502;2023-02-12T09:14:16;102014.63;;;4.27;100.00
2268;BME280;11052;43.338;25.502;2023-02-12T09:16:43;102024.44;;;4.09;100.00
2268;BME280;11052;43.338;25.502;2023-02-12T09:19:12;102019.38;;;4.12;100.00
2268;BME280;11052;43.338;25.502;2023-02-12T09:21:39;102022.63;;;4.05;100.00
2268;BME280;11052;43.338;25.502;2023-02-12T09:24:08;102018.31;;;4.40;100.00
2268;BME280;11052;43.338;25.502;2023-02-12T09:26:36;102017.13;;;4.63;100.00
2268;BME280;11052;43.338;25.502;2023-02-12T09:29:03;102025.25;;;4.83;100.00
2268;BME280;11052;43.338;25.502;2023-02-12T09:31:31;102034.59;;;4.79;100.00
2268;BME280;11052;43.338;25.502;2023-02-12T09:34:00;102025.66;;;4.62;100.00
2268;BME280;11052;43.338;25.502;2023-02-12T09:36:28;102027.13;;;4.51;100.00
2268;BME280;11052;43.338;25.502;2023-02-12T09:38:55;102035.91;;;4.60;100.00
2268;BME280;11052;43.338;25.502;2023-02-12T09:44:35;102041.00;;;4.98;100.00
2268;BME280;11052;43.338;25.502;2023-02-12T09:47:11;102044.63;;;5.08;100.00
2268;BME280;11052;43.338;25.502;2023-02-12T09:49:59;102049.13;;;5.18;100.00
2268;BME280;11052;43.338;25.502;2023-02-12T09:52:29;102047.41;;;5.18;100.00
2268;BME280;11052;43.338;25.502;2023-02-12T09:54:57;102050.47;;;5.44;100.00
2268;BME280;11052;43.338;25.502;2023-02-12T09:57:27;102049.25;;;5.71;100.00
2268;BME280;11052;43.338;25.502;2023-02-12T10:00:03;102040.28;;;5.96;100.00
2268;BME280;11052;43.338;25.502;2023-02-12T10:02:31;102037.72;;;5.96;100.00
2268;BME280;11052;43.338;25.502;2023-02-12T10:05:00;102045.00;;;6.24;100.00
2268;BME280;11052;43.338;25.502;2023-02-12T10:07:39;102049.28;;;6.22;100.00
2268;BME280;11052;43.338;25.502;2023-02-12T10:10:23;102050.78;;;6.09;100.00
2268;BME280;11052;43.338;25.502;2023-02-12T10:12:55;102050.19;;;6.25;100.00
2268;BME280;11052;43.338;25.502;2023-02-12T10:15:32;102051.88;;;6.23;97.24
2268;BME280;11052;43.338;25.502;2023-02-12T10:18:13;102051.94;;;6.28;91.55
2268;BME280;11052;43.338;25.502;2023-02-12T10:20:56;102056.81;;;6.11;89.54
2268;BME280;11052;43.338;25.502;2023-02-12T10:23:42;102053.81;;;6.38;95.98
2268;BME280;11052;43.338;25.502;2023-02-12T10:26:17;102050.59;;;6.51;91.25
2268;BME280;11052;43.338;25.502;2023-02-12T10:28:45;102057.44;;;6.49;90.56
2268;BME280;11052;43.338;25.502;2023-02-12T10:31:17;102054.53;;;6.30;92.62
2268;BME280;11052;43.338;25.502;2023-02-12T10:33:47;102056.31;;;5.82;86.18
2268;BME280;11052;43.338;25.502;2023-02-12T10:36:24;102060.59;;;5.82;86.58
2268;BME280;11052;43.338;25.502;2023-02-12T10:38:57;102062.56;;;5.94;89.11
2268;BME280;11052;43.338;25.502;2023-02-12T10:41:28;102051.44;;;5.96;94.82
2268;BME280;11052;43.338;25.502;2023-02-12T10:43:56;102047.06;;;5.90;91.31
2268;BME280;11052;43.338;25.502;2023-02-12T10:46:29;102047.19;;;5.98;91.41
2268;BME280;11052;43.338;25.502;2023-02-12T10:48:57;102044.84;;;6.13;87.22
2268;BME280;11052;43.338;25.502;2023-02-12T10:52:01;102037.03;;;6.06;86.27
2268;BME280;11052;43.338;25.502;2023-02-12T10:54:35;102037.84;;;6.03;87.73
2268;BME280;11052;43.338;25.502;2023-02-12T10:57:16;102048.91;;;5.98;91.65
2268;BME280;11052;43.338;25.502;2023-02-12T10:59:46;102049.03;;;6.05;88.25
2268;BME280;11052;43.338;25.502;2023-02-12T11:02:22;102054.00;;;5.95;88.95
2268;BME280;11052;43.338;25.502;2023-02-12T11:04:51;102056.41;;;5.87;89.93
2268;BME280;11052;43.338;25.502;2023-02-12T11:07:19;102059.31;;;5.58;94.95
2268;BME280;11052;43.338;25.502;2023-02-12T11:09:48;102061.22;;;5.69;95.79
2268;BME280;11052;43.338;25.502;2023-02-12T11:12:25;102065.22;;;5.53;94.00
2268;BME280;11052;43.338;25.502;2023-02-12T11:14:56;102065.00;;;5.42;96.03
2268;BME280;11052;43.338;25.502;2023-02-12T11:17:29;102069.97;;;5.33;95.41
2268;BME280;11052;43.338;25.502;2023-02-12T11:20:18;102074.94;;;5.25;96.09
2268;BME280;11052;43.338;25.502;2023-02-12T11:22:55;102075.03;;;5.30;99.60
2268;BME280;11052;43.338;25.502;2023-02-12T11:25:25;102076.25;;;5.47;100.00
2268;BME280;11052;43.338;25.502;2023-02-12T11:28:01;102073.75;;;5.52;98.39
2268;BME280;11052;43.338;25.502;2023-02-12T11:30:29;102071.34;;;5.59;98.24
2268;BME280;11052;43.338;25.502;2023-02-12T11:33:14;102062.28;;;5.80;92.43
2268;BME280;11052;43.338;25.502;2023-02-12T11:35:50;102065.63;;;5.76;91.52
2268;BME280;11052;43.338;25.502;2023-02-12T11:38:23;102069.91;;;5.75;93.56
2268;BME280;11052;43.338;25.502;2023-02-12T11:40:55;102065.66;;;5.77;88.60
2268;BME280;11052;43.338;25.502;2023-02-12T11:43:23;102065.75;;;5.82;92.29
2268;BME280;11052;43.338;25.502;2023-02-12T11:45:53;102069.09;;;5.78;92.92
2268;BME280;11052;43.338;25.502;2023-02-12T11:48:25;102071.72;;;5.81;98.35
2268;BME280;11052;43.338;25.502;2023-02-12T11:50:55;102068.41;;;5.86;93.71
2268;BME280;11052;43.338;25.502;2023-02-12T11:53:25;102059.41;;;6.11;96.16
2268;BME280;11052;43.338;25.502;2023-02-12T11:55:57;102061.91;;;6.05;86.85
2268;BME280;11052;43.338;25.502;2023-02-12T11:58:26;102061.19;;;6.15;93.11
2268;BME280;11052;43.338;25.502;2023-02-12T12:00:58;102069.81;;;6.19;90.79
2268;BME280;11052;43.338;25.502;2023-02-12T12:03:34;102071.50;;;6.17;91.90
2268;BME280;11052;43.338;25.502;2023-02-12T12:06:07;102070.75;;;6.22;91.08
2268;BME280;11052;43.338;25.502;2023-02-12T12:08:43;102069.00;;;6.21;86.15
2268;BME280;11052;43.338;25.502;2023-02-12T12:11:13;102068.75;;;6.05;86.26
2268;BME280;11052;43.338;25.502;2023-02-12T12:13:46;102065.06;;;5.90;82.58
2268;BME280;11052;43.338;25.502;2023-02-12T12:16:18;102080.28;;;5.80;86.87
2268;BME280;11052;43.338;25.502;2023-02-12T12:19:11;102086.16;;;5.73;86.56
2268;BME280;11052;43.338;25.502;2023-02-12T12:22:02;102083.22;;;5.53;89.32
2268;BME280;11052;43.338;25.502;2023-02-12T12:24:37;102087.50;;;5.52;90.44
2268;BME280;11052;43.338;25.502;2023-02-12T12:27:11;102095.25;;;5.55;91.17
2268;BME280;11052;43.338;25.502;2023-02-12T12:30:07;102102.84;;;5.49;95.29
2268;BME280;11052;43.338;25.502;2023-02-12T12:32:38;102100.34;;;5.52;98.46
2268;BME280;11052;43.338;25.502;2023-02-12T12:35:12;102105.44;;;5.49;95.45
2268;BME280;11052;43.338;25.502;2023-02-12T12:37:45;102107.47;;;5.23;100.00
2268;BME280;11052;43.338;25.502;2023-02-12T12:40:33;102111.84;;;5.27;97.66
2268;BME280;11052;43.338;25.502;2023-02-12T12:43:10;102114.81;;;5.05;100.00
2268;BME280;11052;43.338;25.502;2023-02-12T12:45:54;102110.47;;;5.03;100.00
2268;BME280;11052;43.338;25.502;2023-02-12T12:48:36;102117.50;;;5.10;100.00
2268;BME280;11052;43.338;25.502;2023-02-12T12:51:21;102119.00;;;5.00;100.00
2268;BME280;11052;43.338;25.502;2023-02-12T12:54:03;102108.72;;;5.00;94.82
2268;BME280;11052;43.338;25.502;2023-02-12T12:56:44;102117.09;;;4.91;93.14
2268;BME280;11052;43.338;25.502;2023-02-12T12:59:42;102123.81;;;4.86;97.23
2268;BME280;11052;43.338;25.502;2023-02-12T13:05:46;102128.06;;;4.84;97.39
2268;BME280;11052;43.338;25.502;2023-02-12T13:08:30;102119.47;;;4.84;100.00
2268;BME280;11052;43.338;25.502;2023-02-12T13:11:03;102139.16;;;4.83;100.00
2268;BME280;11052;43.338;25.502;2023-02-12T13:13:37;102142.38;;;4.75;100.00
2268;BME280;11052;43.338;25.502;2023-02-12T13:16:11;102140.78;;;4.80;100.00
2268;BME280;11052;43.338;25.502;2023-02-12T13:18:49;102132.44;;;4.88;100.00
2268;BME280;11052;43.338;25.502;2023-02-12T13:21:25;102140.19;;;4.90;100.00